メインページ
METAR-TAF:

METAR-TAF

空港 :

ダブリン空港

ダブリン, アイルランド

緯度: 53-26N, 経度: 006-15W, 海抜: 68m

現時点の気象観測

当レポートは17分前の11:00(UTC)に作成
南/南西の風 7kt、から西/南西の間で変化する
気温 18°C
湿度 88%
気圧 1002 hPa
視程10km以上
高度800ftの雲はほとんどない
高度1800ftの雲はほとんどない, 積乱雲.
高度5000ftの千切れ雲あり

METAR: EIDW 051100Z 21007KT 170V250 9999 FEW008 FEW018CB BKN050 18/16 Q1002 NOSIG

時間: 12:17 (11:17 UTC)

予報

当レポートは6時間17分前の05:00(UTC)に作成
予報は05日の 06時(UTC)から 06日の 06時(UTC)まで有効
南/南西の風 10kt
視程10km以上
高度1000ftの雲は散在している
高度1700ftの千切れ雲あり
05日の 06時(UTC)から 05日の 13時(UTC)まで一時的に
視程: 5000m
高度1000ftの千切れ雲あり
小雨
確率 30% :
05日の 10時(UTC)から 05日の 13時(UTC)まで一時的に
西/南西の風 16kt、最大27ktの突風を伴う
視程: 2500m
高度700ftの千切れ雲あり
高度3000ftの雲は散在している, 積乱雲.
激しいにわか雨
05日の 12時(UTC)から 05日の 14時(UTC)まで徐々に
西の風 14kt
05日の 15時(UTC)から 05日の 17時(UTC)まで徐々に
西/南西の風 10kt
06日の 02時(UTC)から 06日の 04時(UTC)まで徐々に
変向風 3kt

TAF: EIDW 050500Z 0506/0606 21010KT 9999 SCT010 BKN017 TEMPO 0506/0513 5000 -RA BKN010 PROB30 TEMPO 0510/0513 24016G27KT 2500 +SHRA BKN007 SCT030CB BECMG 0512/0514 27014KT BECMG 0515/0517 24010KT BECMG 0602/0604 VRB03KT

4,000以上の空港の気象観測と天気予報(METAR報とTAF報)

利用可能な観測所は地図上に黄色い丸と赤い丸で示す。

丸の上にカーソルを重ねると観測所名を参照できる。

次にクリックすると気象観測と天気予報を参照できる。

マップの切り替え:黒色「×」印の緑ボタンをクリックして拡大、「-」印の緑ボタンをクリックして縮小、緑色の三角印をクリックして隣りの地図に切り替え


METAR-TAF: